Pelagos — SZSW — position and weather

sailwx.info

Track history (hours):
 
Tides and Currents Weather Stations Pressure Air Temp Water Temp Dewpoint Dewpoint Depression Visibility Wind Speed Wind Dir Waves Ship Positions

Pelagos

Last reported at 2017-Jun-23 00:00 UTC. Time now 2017-Jun-23 00:15 UTC.
Position N 60°20' E 028°42'.

Length 249 m; draft 8 m.

Type: Tanker. MMSI: 240335000.

Date/timePositionNaut miles runAvg speedWind from/ knotsBaromVisibWave heightAir tempDewpointWater temp
2017-Jun-23 00:00N 60°20' E 028°42'0 0.0
2017-Jun-22 23:27N 60°20' E 028°42'0 0.0
2017-Jun-22 23:00N 60°20' E 028°42'0 0.0
2017-Jun-22 22:30N 60°20' E 028°42'0 0.0
2017-Jun-22 22:00N 60°20' E 028°42'0 0.0
2017-Jun-22 21:30N 60°20' E 028°42'0 0.0
2017-Jun-22 21:00N 60°20' E 028°42'0 0.0
2017-Jun-22 20:30N 60°20' E 028°42'0 0.0
2017-Jun-22 19:58N 60°20' E 028°42'0 0.0
2017-Jun-22 19:30N 60°20' E 028°42'0 0.0
2017-Jun-22 19:00N 60°20' E 028°42'0 0.0
2017-Jun-22 18:30N 60°20' E 028°42'0 0.0
2017-Jun-22 18:00N 60°20' E 028°42'0 0.0
2017-Jun-22 17:30N 60°20' E 028°42'0 0.0
2017-Jun-22 17:00N 60°20' E 028°42'0 0.0
2017-Jun-22 16:30N 60°20' E 028°42'0 0.0
2017-Jun-22 16:00N 60°20' E 028°42'0 0.0
2017-Jun-22 15:30N 60°20' E 028°42'0 0.0
2017-Jun-22 15:00N 60°20' E 028°42'1 1.5
2017-Jun-22 14:30N 60°19' E 028°42'9 8.7
2017-Jun-22 13:31N 60°11' E 028°43'713.4
2017-Jun-22 13:01N 60°06' E 028°33'5 9.9
2017-Jun-22 12:31N 60°02' E 028°28'1 1.1
2017-Jun-22 12:00N 60°02' E 028°28'0 0.1
2017-Jun-22 11:30N 60°02' E 028°28'0 0.0
2017-Jun-22 11:00N 60°02' E 028°28'0 0.1
2017-Jun-22 10:30N 60°01' E 028°28'0 0.1
2017-Jun-22 10:00N 60°02' E 028°28'0 0.0
2017-Jun-22 09:30N 60°02' E 028°28'0 0.1
2017-Jun-22 09:00N 60°02' E 028°28'0 0.1
2017-Jun-22 08:30N 60°02' E 028°28'0 0.0
2017-Jun-22 08:00N 60°02' E 028°28'0 0.0
2017-Jun-22 07:30N 60°02' E 028°28'0 0.0
2017-Jun-22 07:00N 60°02' E 028°28'0 0.0
2017-Jun-22 06:30N 60°02' E 028°28'0 0.0
2017-Jun-22 06:00N 60°02' E 028°28'0 0.0
2017-Jun-22 05:30N 60°02' E 028°28'0 0.0
2017-Jun-22 05:00N 60°02' E 028°28'0 0.0
2017-Jun-22 04:30N 60°02' E 028°28'0 0.0
2017-Jun-22 04:00N 60°02' E 028°28'0 0.0
2017-Jun-22 03:30N 60°02' E 028°28'0 0.0
2017-Jun-22 03:00N 60°01' E 028°28'0 0.0
2017-Jun-22 02:30N 60°01' E 028°28'0 0.1
2017-Jun-22 02:00N 60°02' E 028°28'0 0.0
2017-Jun-22 01:30N 60°02' E 028°28'0 0.0
2017-Jun-22 01:00N 60°02' E 028°28'0 0.0
2017-Jun-22 00:30N 60°02' E 028°28'0 0.0
2017-Jun-22 00:00N 60°01' E 028°28'0 0.0
2017-Jun-21 23:30N 60°02' E 028°28'0 0.1
2017-Jun-21 23:00N 60°01' E 028°28'0 0.0
2017-Jun-21 22:30N 60°01' E 028°28'0 0.0
2017-Jun-21 22:00N 60°02' E 028°28'0 0.0
2017-Jun-21 21:30N 60°02' E 028°28'0 0.0
2017-Jun-21 21:00N 60°02' E 028°28'0 0.0
2017-Jun-21 20:30N 60°02' E 028°28'0 0.0
2017-Jun-21 20:00N 60°02' E 028°28'0 0.1
2017-Jun-21 19:30N 60°02' E 028°28'0 0.0
2017-Jun-21 19:00N 60°02' E 028°28'0 0.0
2017-Jun-21 18:30N 60°02' E 028°28'0 0.0
2017-Jun-21 18:00N 60°02' E 028°28'0 0.1
2017-Jun-21 17:30N 60°01' E 028°28'0 0.1
2017-Jun-21 17:00N 60°02' E 028°28'0 0.0
2017-Jun-21 16:30N 60°02' E 028°28'0 0.0
2017-Jun-21 16:00N 60°02' E 028°28'0 0.0
2017-Jun-21 15:30N 60°02' E 028°28'0 0.0
2017-Jun-21 15:00N 60°02' E 028°28'0 0.2
2017-Jun-21 14:30N 60°01' E 028°28'0 0.1
2017-Jun-21 13:30N 60°01' E 028°28'0 0.2
2017-Jun-21 13:00N 60°02' E 028°28'0 0.0
2017-Jun-21 12:30N 60°02' E 028°28'0 0.0
2017-Jun-21 12:00N 60°02' E 028°28'0 0.0
2017-Jun-21 11:30N 60°02' E 028°28'0 0.0
2017-Jun-21 11:00N 60°02' E 028°28'0 0.2
2017-Jun-21 10:30N 60°02' E 028°28'1 2.0
2017-Jun-21 10:00N 60°02' E 028°27'3 6.2
2017-Jun-21 09:30N 60°04' E 028°22'3 6.3
2017-Jun-21 09:00N 60°06' E 028°17'4 8.2
2017-Jun-21 08:31N 60°08' E 028°10'4 8.6
2017-Jun-21 08:01N 60°09' E 028°01'4 8.7
2017-Jun-21 07:31N 60°10' E 027°53'4 8.2
2017-Jun-21 07:00N 60°10' E 027°45'4 8.4
2017-Jun-21 06:31N 60°08' E 027°37'4 8.5
2017-Jun-21 06:01N 60°06' E 027°30'4 8.5
2017-Jun-21 05:31N 60°04' E 027°23'4 8.4
2017-Jun-21 05:01N 60°02' E 027°16'4 8.4
2017-Jun-21 04:30N 59°59' E 027°08'4 8.0
2017-Jun-21 04:00N 59°58' E 027°01'4 8.8
2017-Jun-21 03:30N 59°59' E 026°52'4 8.8
2017-Jun-21 03:01N 59°59' E 026°44'4 8.6
2017-Jun-21 02:30N 59°59' E 026°35'4 8.7
2017-Jun-21 02:01N 59°58' E 026°27'4 8.8
2017-Jun-21 01:30N 59°57' E 026°18'5 9.0
2017-Jun-21 01:00N 59°55' E 026°10'4 9.0
2017-Jun-21 00:31N 59°54' E 026°01'4 8.9
2017-Jun-21 00:00N 59°53' E 025°52'4 8.8
2017-Jun-20 23:30N 59°52' E 025°44'4 8.7
2017-Jun-20 23:00N 59°51' E 025°35'4 8.7
2017-Jun-20 22:30N 59°50' E 025°27'4 8.6
2017-Jun-20 22:00N 59°49' E 025°19'4 8.5
2017-Jun-20 21:30N 59°48' E 025°10'4 8.4
2017-Jun-20 21:01N 59°47' E 025°02'4 8.3
2017-Jun-20 20:30N 59°47' E 024°54'4 8.3
2017-Jun-20 20:01N 59°46' E 024°46'4 8.8
2017-Jun-20 19:31N 59°45' E 024°38'4 8.7
2017-Jun-20 19:01N 59°44' E 024°29'4 8.6
2017-Jun-20 18:31N 59°43' E 024°21'4 8.5
2017-Jun-20 18:00N 59°42' E 024°13'4 8.3
2017-Jun-20 17:30N 59°40' E 024°05'4 8.3
2017-Jun-20 17:01N 59°39' E 023°58'4 8.4
2017-Jun-20 16:31N 59°38' E 023°50'4 8.2
2017-Jun-20 16:01N 59°36' E 023°42'4 8.3
2017-Jun-20 15:31N 59°35' E 023°34'4 8.4
2017-Jun-20 15:01N 59°34' E 023°26'4 8.3
2017-Jun-20 14:31N 59°32' E 023°19'8 8.0
2017-Jun-20 13:31N 59°30' E 023°04'4 8.0
2017-Jun-20 13:00N 59°28' E 022°56'4 8.3
2017-Jun-20 12:30N 59°27' E 022°48'4 8.2
2017-Jun-20 12:00N 59°26' E 022°41'4 7.8
2017-Jun-20 11:30N 59°24' E 022°34'3 5.9
2017-Jun-20 11:01N 59°22' E 022°29'2 4.8
2017-Jun-20 10:30N 59°21' E 022°25'2 4.9
2017-Jun-20 10:00N 59°19' E 022°22'3 5.1
2017-Jun-20 09:30N 59°18' E 022°18'3 5.1
2017-Jun-20 09:00N 59°16' E 022°14'3 5.2
2017-Jun-20 08:30N 59°15' E 022°10'3 5.3
2017-Jun-20 08:00N 59°13' E 022°06'3 5.4
2017-Jun-20 07:30N 59°11' E 022°02'3 5.5
2017-Jun-20 07:00N 59°10' E 021°58'3 5.9
2017-Jun-20 06:30N 59°08' E 021°53'3 6.0
2017-Jun-20 06:00N 59°06' E 021°48'3 6.0
2017-Jun-20 05:30N 59°04' E 021°45'4 7.2
2017-Jun-20 05:00N 59°01' E 021°41'4 8.9
2017-Jun-20 04:30N 58°57' E 021°36'4 8.9
2017-Jun-20 04:00N 58°53' E 021°31'4 9.0
2017-Jun-20 03:30N 58°50' E 021°26'9 9.1
2017-Jun-20 02:28N 58°42' E 021°15'8 9.1
2017-Jun-20 01:34N 58°35' E 021°06'1 8.8
2017-Jun-20 01:30N 58°35' E 021°06'4 9.0
2017-Jun-20 01:00N 58°31' E 021°01'4 8.9
2017-Jun-20 00:30N 58°27' E 020°56'4 9.0
2017-Jun-20 00:01N 58°24' E 020°51'4 8.9
2017-Jun-19 23:30N 58°20' E 020°46'5 9.1
2017-Jun-19 22:58N 58°16' E 020°41'4 9.0
2017-Jun-19 22:30N 58°13' E 020°37'5 9.0
2017-Jun-19 22:00N 58°09' E 020°32'5 9.1
2017-Jun-19 21:24N 58°04' E 020°27'121 8.4
2017-Jun-19 07:00N 56°17' E 018°45'14 8.3
2017-Jun-19 05:22N 56°10' E 018°24'3 8.3
2017-Jun-19 04:59N 56°08' E 018°20'6 8.3
2017-Jun-19 04:16N 56°05' E 018°10'4 8.4
2017-Jun-19 03:47N 56°03' E 018°04'4 8.4
2017-Jun-19 03:17N 56°01' E 017°58'2 8.4
2017-Jun-19 03:01N 55°60' E 017°54'4 8.4
2017-Jun-19 02:31N 55°58' E 017°48'4 8.4
2017-Jun-19 02:01N 55°55' E 017°41'4 8.4
2017-Jun-19 01:31N 55°54' E 017°34'7 8.5
2017-Jun-19 00:38N 55°52' E 017°21'1 8.6
2017-Jun-19 00:29N 55°52' E 017°19'4 8.6
2017-Jun-18 23:58N 55°51' E 017°11'4 8.5
2017-Jun-18 23:28N 55°50' E 017°04'4 8.6
2017-Jun-18 23:01N 55°49' E 016°57'4 8.5
2017-Jun-18 22:31N 55°48' E 016°50'4 8.6
2017-Jun-18 22:01N 55°47' E 016°42'4 8.6
2017-Jun-18 21:31N 55°46' E 016°35'4 8.5
2017-Jun-18 21:01N 55°45' E 016°28'4 8.5
2017-Jun-18 20:31N 55°43' E 016°20'4 8.5
2017-Jun-18 20:01N 55°42' E 016°13'4 8.5
2017-Jun-18 19:31N 55°41' E 016°06'4 8.5
2017-Jun-18 19:00N 55°40' E 015°58'4 8.5
2017-Jun-18 18:31N 55°39' E 015°51'4 8.7
2017-Jun-18 18:01N 55°38' E 015°44'4 8.7
2017-Jun-18 17:31N 55°37' E 015°36'4 8.6
2017-Jun-18 17:00N 55°36' E 015°29'4 8.6
2017-Jun-18 16:31N 55°35' E 015°22'4 8.2
2017-Jun-18 16:01N 55°33' E 015°15'4 8.5
2017-Jun-18 15:31N 55°31' E 015°08'4 8.7
2017-Jun-18 15:01N 55°29' E 015°01'9 8.7
2017-Jun-18 14:00N 55°26' E 014°47'4 8.6
2017-Jun-18 13:30N 55°24' E 014°40'4 8.4
2017-Jun-18 13:00N 55°21' E 014°35'510.1
2017-Jun-18 12:30N 55°17' E 014°29'5 9.6
2017-Jun-18 12:01N 55°14' E 014°23'4 7.8
2017-Jun-18 11:29N 55°11' E 014°18'4 8.2
2017-Jun-18 11:00N 55°11' E 014°11'4 8.1
2017-Jun-18 10:30N 55°10' E 014°04'4 8.2
2017-Jun-18 10:00N 55°10' E 013°57'4 8.1
2017-Jun-18 09:29N 55°11' E 013°49'4 8.0
2017-Jun-18 08:59N 55°11' E 013°42'4 8.0
2017-Jun-18 08:29N 55°11' E 013°36'4 8.0
2017-Jun-18 07:59N 55°12' E 013°28'4 8.1
2017-Jun-18 07:30N 55°12' E 013°22'4 8.0
2017-Jun-18 07:01N 55°13' E 013°15'4 8.2
2017-Jun-18 06:31N 55°13' E 013°08'4 8.4
2017-Jun-18 06:00N 55°14' E 013°00'4 8.0
2017-Jun-18 05:30N 55°14' E 012°53'4 8.2
2017-Jun-18 05:00N 55°16' E 012°47'4 8.5
2017-Jun-18 04:31N 55°17' E 012°40'3 6.6
2017-Jun-18 04:01N 55°21' E 012°38'4 8.3
2017-Jun-18 03:30N 55°25' E 012°39'4 8.1
2017-Jun-18 03:01N 55°28' E 012°42'5 9.2
2017-Jun-18 02:31N 55°32' E 012°46'5 9.3
2017-Jun-18 02:01N 55°36' E 012°51'4 8.7
2017-Jun-18 01:31N 55°39' E 012°56'713.3
2017-Jun-18 01:01N 55°45' E 012°51'713.5
2017-Jun-18 00:30N 55°51' E 012°45'713.6
2017-Jun-18 00:00N 55°57' E 012°42'713.5
2017-Jun-17 23:30N 56°04' E 012°38'611.1
2017-Jun-17 23:00N 56°07' E 012°30'4 8.1
2017-Jun-17 22:30N 56°10' E 012°24'4 8.2
2017-Jun-17 22:00N 56°12' E 012°18'4 8.1
2017-Jun-17 21:30N 56°14' E 012°12'4 7.9
2017-Jun-17 21:00N 56°16' E 012°06'3 7.0
2017-Jun-17 20:30N 56°19' E 012°02'4 8.0
2017-Jun-17 19:57N 56°23' E 012°00'4 8.1
2017-Jun-17 19:30N 56°27' E 011°59'4 8.3
2017-Jun-17 19:00N 56°31' E 011°57'4 8.5
2017-Jun-17 18:30N 56°35' E 011°56'5 8.5
2017-Jun-17 17:58N 56°40' E 011°54'4 8.5
2017-Jun-17 17:30N 56°43' E 011°53'5 8.5
2017-Jun-17 16:55N 56°48' E 011°50'9 8.4
2017-Jun-17 15:48N 56°57' E 011°44'3 8.5
2017-Jun-17 15:28N 56°60' E 011°42'7 8.3
2017-Jun-17 14:36N 57°06' E 011°38'5 8.0
2017-Jun-17 14:00N 57°11' E 011°35'4 8.5
2017-Jun-17 13:29N 57°15' E 011°32'4 8.6
2017-Jun-17 13:00N 57°19' E 011°29'4 8.6
2017-Jun-17 12:30N 57°23' E 011°26'5 9.0
2017-Jun-17 12:00N 57°27' E 011°23'4 8.7
2017-Jun-17 11:30N 57°31' E 011°18'4 8.8
2017-Jun-17 11:00N 57°33' E 011°12'4 8.7
2017-Jun-17 10:30N 57°36' E 011°06'5 8.7
2017-Jun-17 09:58N 57°40' E 010°60'4 8.6
2017-Jun-17 09:30N 57°42' E 010°54'4 8.7
2017-Jun-17 09:00N 57°45' E 010°48'4 8.9
2017-Jun-17 08:30N 57°47' E 010°41'5 9.8
2017-Jun-17 07:59N 57°47' E 010°31'5 9.4
2017-Jun-17 07:30N 57°47' E 010°23'5 9.2
2017-Jun-17 07:00N 57°46' E 010°14'5 9.1
2017-Jun-17 06:28N 57°46' E 010°05'4 8.8
2017-Jun-17 05:59N 57°45' E 009°57'4 8.7
2017-Jun-17 05:30N 57°45' E 009°49'4 8.6
2017-Jun-17 05:00N 57°44' E 009°42'7 8.5
2017-Jun-17 04:14N 57°41' E 009°30'2 8.6
2017-Jun-17 03:58N 57°41' E 009°26'7 8.7
2017-Jun-17 03:10N 57°39' E 009°14'3 8.8
2017-Jun-17 02:49N 57°38' E 009°08'218 8.2
2017-Jun-16 00:09N 54°43' E 005°13'2 8.8
2017-Jun-15 23:56N 54°41' E 005°11'4 9.0
2017-Jun-15 23:29N 54°38' E 005°07'4 8.8
2017-Jun-15 23:00N 54°35' E 005°03'5 8.9
2017-Jun-15 22:28N 54°30' E 005°00'5 9.0
2017-Jun-15 21:58N 54°26' E 004°56'4 9.0
2017-Jun-15 21:30N 54°23' E 004°53'137 8.3
2017-Jun-15 05:08N 52°19' E 003°15'2 8.9
2017-Jun-15 04:54N 52°18' E 003°17'4 9.1
2017-Jun-15 04:30N 52°15' E 003°22'5 9.3
2017-Jun-15 04:00N 52°12' E 003°27'4 8.9
2017-Jun-15 03:30N 52°09' E 003°32'4 8.8
2017-Jun-15 03:00N 52°06' E 003°38'5 9.1
2017-Jun-15 02:30N 52°05' E 003°45'5 9.4
2017-Jun-15 02:00N 52°03' E 003°52'4 8.8
2017-Jun-15 01:31N 52°01' E 003°58'713.1
2017-Jun-15 01:00N 51°58' E 004°08'2 3.8
2017-Jun-15 00:29N 51°56' E 004°10'0 0.0
2017-Jun-14 23:56N 51°56' E 004°10'0 0.0
2017-Jun-14 23:30N 51°56' E 004°10'0 0.0
2017-Jun-14 22:59N 51°56' E 004°10'0 0.0
2017-Jun-14 22:29N 51°56' E 004°10'0 0.0
2017-Jun-14 21:59N 51°56' E 004°10'0 0.0
2017-Jun-14 21:26N 51°56' E 004°10'0 0.0
2017-Jun-14 20:50N 51°56' E 004°10'0 0.0
2017-Jun-14 20:30N 51°56' E 004°10'0 0.0
2017-Jun-14 19:53N 51°56' E 004°10'0 0.0
2017-Jun-14 19:24N 51°56' E 004°10'0 0.0
2017-Jun-14 18:51N 51°56' E 004°10'0 0.0
2017-Jun-14 18:29N 51°56' E 004°10'0 0.0
2017-Jun-14 17:53N 51°56' E 004°10'0 0.0
2017-Jun-14 17:29N 51°56' E 004°10'0 0.0
2017-Jun-14 16:59N 51°56' E 004°10'0 0.0
2017-Jun-14 16:27N 51°56' E 004°10'0 0.0
2017-Jun-14 15:59N 51°56' E 004°10'0 0.0
2017-Jun-14 15:26N 51°56' E 004°10'0 0.0
2017-Jun-14 14:59N 51°56' E 004°10'0 0.0
2017-Jun-14 13:56N 51°56' E 004°10'0 0.0
2017-Jun-14 13:29N 51°56' E 004°10'0 0.0
2017-Jun-14 13:00N 51°56' E 004°10'0 0.0
2017-Jun-14 12:29N 51°56' E 004°10'0 0.0
2017-Jun-14 11:59N 51°56' E 004°10'0 0.0
2017-Jun-14 11:29N 51°56' E 004°10'0 0.0
2017-Jun-14 10:56N 51°56' E 004°10'0 0.0
2017-Jun-14 10:29N 51°56' E 004°10'0 0.0
2017-Jun-14 09:53N 51°56' E 004°10'0 0.0
2017-Jun-14 09:09N 51°56' E 004°10'0 0.0
2017-Jun-14 08:57N 51°56' E 004°10'0 0.0
2017-Jun-14 08:24N 51°56' E 004°10'0 0.0
2017-Jun-14 07:48N 51°56' E 004°10'0 0.0
2017-Jun-14 07:30N 51°56' E 004°10'0 0.0
2017-Jun-14 07:00N 51°56' E 004°10'0 0.0
2017-Jun-14 06:24N 51°56' E 004°10'0 0.0
2017-Jun-14 06:00N 51°56' E 004°10'0 0.0
2017-Jun-14 05:30N 51°56' E 004°10'0 0.0
2017-Jun-14 04:57N 51°56' E 004°10'0 0.0
2017-Jun-14 04:30N 51°56' E 004°10'0 0.0
2017-Jun-14 03:51N 51°56' E 004°10'0 0.0
2017-Jun-14 03:30N 51°56' E 004°10'0 0.0
2017-Jun-14 02:57N 51°56' E 004°10'0 0.0
2017-Jun-14 02:27N 51°56' E 004°10'0 0.0
2017-Jun-14 02:00N 51°56' E 004°10'0 0.0
2017-Jun-14 01:27N 51°56' E 004°10'0 0.0
2017-Jun-14 00:57N 51°56' E 004°10'0 0.0
2017-Jun-14 00:30N 51°56' E 004°10'0 0.0
2017-Jun-14 00:00N 51°56' E 004°10'0 0.0
2017-Jun-13 23:30N 51°56' E 004°10'0 0.0
2017-Jun-13 22:51N 51°56' E 004°10'0 0.0
2017-Jun-13 22:21N 51°56' E 004°10'0 0.0
2017-Jun-13 21:57N 51°56' E 004°10'0 0.3
2017-Jun-13 21:31N 51°57' E 004°10'1 1.9
2017-Jun-13 21:01N 51°57' E 004°09'3 6.9
2017-Jun-13 20:31N 51°59' E 004°04'510.8
2017-Jun-13 20:01N 52°01' E 003°56'5 9.9
2017-Jun-13 19:30N 52°00' E 003°47'510.1
2017-Jun-13 19:00N 52°02' E 003°40'611.9
2017-Jun-13 18:30N 52°06' E 003°33'612.1
2017-Jun-13 18:00N 52°09' E 003°24'612.2
2017-Jun-13 17:30N 52°13' E 003°16'611.4
2017-Jun-13 16:59N 52°17' E 003°09'511.1
2017-Jun-13 16:30N 52°22' E 003°09'611.3
2017-Jun-13 15:59N 52°28' E 003°10'511.4
2017-Jun-13 15:31N 52°34' E 003°09'  
Track history (hours):
 
Tides and Currents Weather Stations Pressure Air Temp Water Temp Dewpoint Dewpoint Depression Visibility Wind Speed Wind Dir Waves Ship Positions

Pelagos

Last reported at 2017-Jun-23 00:00 UTC. Time now 2017-Jun-23 00:15 UTC.
Position N 60°20' E 028°42'.

Length 249 m; draft 8 m.

Type: Tanker. MMSI: 240335000.

Date/timePositionNaut miles runAvg speedWind from/ knotsBaromVisibWave heightAir tempDewpointWater temp
2017-Jun-23 00:00N 60°20' E 028°42'0 0.0
2017-Jun-22 23:27N 60°20' E 028°42'0 0.0
2017-Jun-22 23:00N 60°20' E 028°42'0 0.0
2017-Jun-22 22:30N 60°20' E 028°42'0 0.0
2017-Jun-22 22:00N 60°20' E 028°42'0 0.0
2017-Jun-22 21:30N 60°20' E 028°42'0 0.0
2017-Jun-22 21:00N 60°20' E 028°42'0 0.0
2017-Jun-22 20:30N 60°20' E 028°42'0 0.0
2017-Jun-22 19:58N 60°20' E 028°42'0 0.0
2017-Jun-22 19:30N 60°20' E 028°42'0 0.0
2017-Jun-22 19:00N 60°20' E 028°42'0 0.0
2017-Jun-22 18:30N 60°20' E 028°42'0 0.0
2017-Jun-22 18:00N 60°20' E 028°42'0 0.0
2017-Jun-22 17:30N 60°20' E 028°42'0 0.0
2017-Jun-22 17:00N 60°20' E 028°42'0 0.0
2017-Jun-22 16:30N 60°20' E 028°42'0 0.0
2017-Jun-22 16:00N 60°20' E 028°42'0 0.0
2017-Jun-22 15:30N 60°20' E 028°42'0 0.0
2017-Jun-22 15:00N 60°20' E 028°42'1 1.5
2017-Jun-22 14:30N 60°19' E 028°42'9 8.7
2017-Jun-22 13:31N 60°11' E 028°43'713.4
2017-Jun-22 13:01N 60°06' E 028°33'5 9.9
2017-Jun-22 12:31N 60°02' E 028°28'1 1.1
2017-Jun-22 12:00N 60°02' E 028°28'0 0.1
2017-Jun-22 11:30N 60°02' E 028°28'0 0.0
2017-Jun-22 11:00N 60°02' E 028°28'0 0.1
2017-Jun-22 10:30N 60°01' E 028°28'0 0.1
2017-Jun-22 10:00N 60°02' E 028°28'0 0.0
2017-Jun-22 09:30N 60°02' E 028°28'0 0.1
2017-Jun-22 09:00N 60°02' E 028°28'0 0.1
2017-Jun-22 08:30N 60°02' E 028°28'0 0.0
2017-Jun-22 08:00N 60°02' E 028°28'0 0.0
2017-Jun-22 07:30N 60°02' E 028°28'0 0.0
2017-Jun-22 07:00N 60°02' E 028°28'0 0.0
2017-Jun-22 06:30N 60°02' E 028°28'0 0.0
2017-Jun-22 06:00N 60°02' E 028°28'0 0.0
2017-Jun-22 05:30N 60°02' E 028°28'0 0.0
2017-Jun-22 05:00N 60°02' E 028°28'0 0.0
2017-Jun-22 04:30N 60°02' E 028°28'0 0.0
2017-Jun-22 04:00N 60°02' E 028°28'0 0.0
2017-Jun-22 03:30N 60°02' E 028°28'0 0.0
2017-Jun-22 03:00N 60°01' E 028°28'0 0.0
2017-Jun-22 02:30N 60°01' E 028°28'0 0.1
2017-Jun-22 02:00N 60°02' E 028°28'0 0.0
2017-Jun-22 01:30N 60°02' E 028°28'0 0.0
2017-Jun-22 01:00N 60°02' E 028°28'0 0.0
2017-Jun-22 00:30N 60°02' E 028°28'0 0.0
2017-Jun-22 00:00N 60°01' E 028°28'0 0.0
2017-Jun-21 23:30N 60°02' E 028°28'0 0.1
2017-Jun-21 23:00N 60°01' E 028°28'0 0.0
2017-Jun-21 22:30N 60°01' E 028°28'0 0.0
2017-Jun-21 22:00N 60°02' E 028°28'0 0.0
2017-Jun-21 21:30N 60°02' E 028°28'0 0.0
2017-Jun-21 21:00N 60°02' E 028°28'0 0.0
2017-Jun-21 20:30N 60°02' E 028°28'0 0.0
2017-Jun-21 20:00N 60°02' E 028°28'0 0.1
2017-Jun-21 19:30N 60°02' E 028°28'0 0.0
2017-Jun-21 19:00N 60°02' E 028°28'0 0.0
2017-Jun-21 18:30N 60°02' E 028°28'0 0.0
2017-Jun-21 18:00N 60°02' E 028°28'0 0.1
2017-Jun-21 17:30N 60°01' E 028°28'0 0.1
2017-Jun-21 17:00N 60°02' E 028°28'0 0.0
2017-Jun-21 16:30N 60°02' E 028°28'0 0.0
2017-Jun-21 16:00N 60°02' E 028°28'0 0.0
2017-Jun-21 15:30N 60°02' E 028°28'0 0.0
2017-Jun-21 15:00N 60°02' E 028°28'0 0.2
2017-Jun-21 14:30N 60°01' E 028°28'0 0.1
2017-Jun-21 13:30N 60°01' E 028°28'0 0.2
2017-Jun-21 13:00N 60°02' E 028°28'0 0.0
2017-Jun-21 12:30N 60°02' E 028°28'0 0.0
2017-Jun-21 12:00N 60°02' E 028°28'0 0.0
2017-Jun-21 11:30N 60°02' E 028°28'0 0.0
2017-Jun-21 11:00N 60°02' E 028°28'0 0.2
2017-Jun-21 10:30N 60°02' E 028°28'1 2.0
2017-Jun-21 10:00N 60°02' E 028°27'3 6.2
2017-Jun-21 09:30N 60°04' E 028°22'3 6.3
2017-Jun-21 09:00N 60°06' E 028°17'4 8.2
2017-Jun-21 08:31N 60°08' E 028°10'4 8.6
2017-Jun-21 08:01N 60°09' E 028°01'4 8.7
2017-Jun-21 07:31N 60°10' E 027°53'4 8.2
2017-Jun-21 07:00N 60°10' E 027°45'4 8.4
2017-Jun-21 06:31N 60°08' E 027°37'4 8.5
2017-Jun-21 06:01N 60°06' E 027°30'4 8.5
2017-Jun-21 05:31N 60°04' E 027°23'4 8.4
2017-Jun-21 05:01N 60°02' E 027°16'4 8.4
2017-Jun-21 04:30N 59°59' E 027°08'4 8.0
2017-Jun-21 04:00N 59°58' E 027°01'4 8.8
2017-Jun-21 03:30N 59°59' E 026°52'4 8.8
2017-Jun-21 03:01N 59°59' E 026°44'4 8.6
2017-Jun-21 02:30N 59°59' E 026°35'4 8.7
2017-Jun-21 02:01N 59°58' E 026°27'4 8.8
2017-Jun-21 01:30N 59°57' E 026°18'5 9.0
2017-Jun-21 01:00N 59°55' E 026°10'4 9.0
2017-Jun-21 00:31N 59°54' E 026°01'4 8.9
2017-Jun-21 00:00N 59°53' E 025°52'4 8.8
2017-Jun-20 23:30N 59°52' E 025°44'4 8.7
2017-Jun-20 23:00N 59°51' E 025°35'4 8.7
2017-Jun-20 22:30N 59°50' E 025°27'4 8.6
2017-Jun-20 22:00N 59°49' E 025°19'4 8.5
2017-Jun-20 21:30N 59°48' E 025°10'4 8.4
2017-Jun-20 21:01N 59°47' E 025°02'4 8.3
2017-Jun-20 20:30N 59°47' E 024°54'4 8.3
2017-Jun-20 20:01N 59°46' E 024°46'4 8.8
2017-Jun-20 19:31N 59°45' E 024°38'4 8.7
2017-Jun-20 19:01N 59°44' E 024°29'4 8.6
2017-Jun-20 18:31N 59°43' E 024°21'4 8.5
2017-Jun-20 18:00N 59°42' E 024°13'4 8.3
2017-Jun-20 17:30N 59°40' E 024°05'4 8.3
2017-Jun-20 17:01N 59°39' E 023°58'4 8.4
2017-Jun-20 16:31N 59°38' E 023°50'4 8.2
2017-Jun-20 16:01N 59°36' E 023°42'4 8.3
2017-Jun-20 15:31N 59°35' E 023°34'4 8.4
2017-Jun-20 15:01N 59°34' E 023°26'4 8.3
2017-Jun-20 14:31N 59°32' E 023°19'8 8.0
2017-Jun-20 13:31N 59°30' E 023°04'4 8.0
2017-Jun-20 13:00N 59°28' E 022°56'4 8.3
2017-Jun-20 12:30N 59°27' E 022°48'4 8.2
2017-Jun-20 12:00N 59°26' E 022°41'4 7.8
2017-Jun-20 11:30N 59°24' E 022°34'3 5.9
2017-Jun-20 11:01N 59°22' E 022°29'2 4.8
2017-Jun-20 10:30N 59°21' E 022°25'2 4.9
2017-Jun-20 10:00N 59°19' E 022°22'3 5.1
2017-Jun-20 09:30N 59°18' E 022°18'3 5.1
2017-Jun-20 09:00N 59°16' E 022°14'3 5.2
2017-Jun-20 08:30N 59°15' E 022°10'3 5.3
2017-Jun-20 08:00N 59°13' E 022°06'3 5.4
2017-Jun-20 07:30N 59°11' E 022°02'3 5.5
2017-Jun-20 07:00N 59°10' E 021°58'3 5.9
2017-Jun-20 06:30N 59°08' E 021°53'3 6.0
2017-Jun-20 06:00N 59°06' E 021°48'3 6.0
2017-Jun-20 05:30N 59°04' E 021°45'4 7.2
2017-Jun-20 05:00N 59°01' E 021°41'4 8.9
2017-Jun-20 04:30N 58°57' E 021°36'4 8.9
2017-Jun-20 04:00N 58°53' E 021°31'4 9.0
2017-Jun-20 03:30N 58°50' E 021°26'9 9.1
2017-Jun-20 02:28N 58°42' E 021°15'8 9.1
2017-Jun-20 01:34N 58°35' E 021°06'1 8.8
2017-Jun-20 01:30N 58°35' E 021°06'4 9.0
2017-Jun-20 01:00N 58°31' E 021°01'4 8.9
2017-Jun-20 00:30N 58°27' E 020°56'4 9.0
2017-Jun-20 00:01N 58°24' E 020°51'4 8.9
2017-Jun-19 23:30N 58°20' E 020°46'5 9.1
2017-Jun-19 22:58N 58°16' E 020°41'4 9.0
2017-Jun-19 22:30N 58°13' E 020°37'5 9.0
2017-Jun-19 22:00N 58°09' E 020°32'5 9.1
2017-Jun-19 21:24N 58°04' E 020°27'121 8.4
2017-Jun-19 07:00N 56°17' E 018°45'14 8.3
2017-Jun-19 05:22N 56°10' E 018°24'3 8.3
2017-Jun-19 04:59N 56°08' E 018°20'6 8.3
2017-Jun-19 04:16N 56°05' E 018°10'4 8.4
2017-Jun-19 03:47N 56°03' E 018°04'4 8.4
2017-Jun-19 03:17N 56°01' E 017°58'2 8.4
2017-Jun-19 03:01N 55°60' E 017°54'4 8.4
2017-Jun-19 02:31N 55°58' E 017°48'4 8.4
2017-Jun-19 02:01N 55°55' E 017°41'4 8.4
2017-Jun-19 01:31N 55°54' E 017°34'7 8.5
2017-Jun-19 00:38N 55°52' E 017°21'1 8.6
2017-Jun-19 00:29N 55°52' E 017°19'4 8.6
2017-Jun-18 23:58N 55°51' E 017°11'4 8.5
2017-Jun-18 23:28N 55°50' E 017°04'4 8.6
2017-Jun-18 23:01N 55°49' E 016°57'4 8.5
2017-Jun-18 22:31N 55°48' E 016°50'4 8.6
2017-Jun-18 22:01N 55°47' E 016°42'4 8.6
2017-Jun-18 21:31N 55°46' E 016°35'4 8.5
2017-Jun-18 21:01N 55°45' E 016°28'4 8.5
2017-Jun-18 20:31N 55°43' E 016°20'4 8.5
2017-Jun-18 20:01N 55°42' E 016°13'4 8.5
2017-Jun-18 19:31N 55°41' E 016°06'4 8.5
2017-Jun-18 19:00N 55°40' E 015°58'4 8.5
2017-Jun-18 18:31N 55°39' E 015°51'4 8.7
2017-Jun-18 18:01N 55°38' E 015°44'4 8.7
2017-Jun-18 17:31N 55°37' E 015°36'4 8.6
2017-Jun-18 17:00N 55°36' E 015°29'4 8.6
2017-Jun-18 16:31N 55°35' E 015°22'4 8.2
2017-Jun-18 16:01N 55°33' E 015°15'4 8.5
2017-Jun-18 15:31N 55°31' E 015°08'4 8.7
2017-Jun-18 15:01N 55°29' E 015°01'9 8.7
2017-Jun-18 14:00N 55°26' E 014°47'4 8.6
2017-Jun-18 13:30N 55°24' E 014°40'4 8.4
2017-Jun-18 13:00N 55°21' E 014°35'510.1
2017-Jun-18 12:30N 55°17' E 014°29'5 9.6
2017-Jun-18 12:01N 55°14' E 014°23'4 7.8
2017-Jun-18 11:29N 55°11' E 014°18'4 8.2
2017-Jun-18 11:00N 55°11' E 014°11'4 8.1
2017-Jun-18 10:30N 55°10' E 014°04'4 8.2
2017-Jun-18 10:00N 55°10' E 013°57'4 8.1
2017-Jun-18 09:29N 55°11' E 013°49'4 8.0
2017-Jun-18 08:59N 55°11' E 013°42'4 8.0
2017-Jun-18 08:29N 55°11' E 013°36'4 8.0
2017-Jun-18 07:59N 55°12' E 013°28'4 8.1
2017-Jun-18 07:30N 55°12' E 013°22'4 8.0
2017-Jun-18 07:01N 55°13' E 013°15'4 8.2
2017-Jun-18 06:31N 55°13' E 013°08'4 8.4
2017-Jun-18 06:00N 55°14' E 013°00'4 8.0
2017-Jun-18 05:30N 55°14' E 012°53'4 8.2
2017-Jun-18 05:00N 55°16' E 012°47'4 8.5
2017-Jun-18 04:31N 55°17' E 012°40'3 6.6
2017-Jun-18 04:01N 55°21' E 012°38'4 8.3
2017-Jun-18 03:30N 55°25' E 012°39'4 8.1
2017-Jun-18 03:01N 55°28' E 012°42'5 9.2
2017-Jun-18 02:31N 55°32' E 012°46'5 9.3
2017-Jun-18 02:01N 55°36' E 012°51'4 8.7
2017-Jun-18 01:31N 55°39' E 012°56'713.3
2017-Jun-18 01:01N 55°45' E 012°51'713.5
2017-Jun-18 00:30N 55°51' E 012°45'713.6
2017-Jun-18 00:00N 55°57' E 012°42'713.5
2017-Jun-17 23:30N 56°04' E 012°38'611.1
2017-Jun-17 23:00N 56°07' E 012°30'4 8.1
2017-Jun-17 22:30N 56°10' E 012°24'4 8.2
2017-Jun-17 22:00N 56°12' E 012°18'4 8.1
2017-Jun-17 21:30N 56°14' E 012°12'4 7.9
2017-Jun-17 21:00N 56°16' E 012°06'3 7.0
2017-Jun-17 20:30N 56°19' E 012°02'4 8.0
2017-Jun-17 19:57N 56°23' E 012°00'4 8.1
2017-Jun-17 19:30N 56°27' E 011°59'4 8.3
2017-Jun-17 19:00N 56°31' E 011°57'4 8.5
2017-Jun-17 18:30N 56°35' E 011°56'5 8.5
2017-Jun-17 17:58N 56°40' E 011°54'4 8.5
2017-Jun-17 17:30N 56°43' E 011°53'5 8.5
2017-Jun-17 16:55N 56°48' E 011°50'9 8.4
2017-Jun-17 15:48N 56°57' E 011°44'3 8.5
2017-Jun-17 15:28N 56°60' E 011°42'7 8.3
2017-Jun-17 14:36N 57°06' E 011°38'5 8.0
2017-Jun-17 14:00N 57°11' E 011°35'4 8.5
2017-Jun-17 13:29N 57°15' E 011°32'4 8.6
2017-Jun-17 13:00N 57°19' E 011°29'4 8.6
2017-Jun-17 12:30N 57°23' E 011°26'5 9.0
2017-Jun-17 12:00N 57°27' E 011°23'4 8.7
2017-Jun-17 11:30N 57°31' E 011°18'4 8.8
2017-Jun-17 11:00N 57°33' E 011°12'4 8.7
2017-Jun-17 10:30N 57°36' E 011°06'5 8.7
2017-Jun-17 09:58N 57°40' E 010°60'4 8.6
2017-Jun-17 09:30N 57°42' E 010°54'4 8.7
2017-Jun-17 09:00N 57°45' E 010°48'4 8.9
2017-Jun-17 08:30N 57°47' E 010°41'5 9.8
2017-Jun-17 07:59N 57°47' E 010°31'5 9.4
2017-Jun-17 07:30N 57°47' E 010°23'5 9.2
2017-Jun-17 07:00N 57°46' E 010°14'5 9.1
2017-Jun-17 06:28N 57°46' E 010°05'4 8.8
2017-Jun-17 05:59N 57°45' E 009°57'4 8.7
2017-Jun-17 05:30N 57°45' E 009°49'4 8.6
2017-Jun-17 05:00N 57°44' E 009°42'7 8.5
2017-Jun-17 04:14N 57°41' E 009°30'2 8.6
2017-Jun-17 03:58N 57°41' E 009°26'7 8.7
2017-Jun-17 03:10N 57°39' E 009°14'3 8.8
2017-Jun-17 02:49N 57°38' E 009°08'218 8.2
2017-Jun-16 00:09N 54°43' E 005°13'2 8.8
2017-Jun-15 23:56N 54°41' E 005°11'4 9.0
2017-Jun-15 23:29N 54°38' E 005°07'4 8.8
2017-Jun-15 23:00N 54°35' E 005°03'5 8.9
2017-Jun-15 22:28N 54°30' E 005°00'5 9.0
2017-Jun-15 21:58N 54°26' E 004°56'4 9.0
2017-Jun-15 21:30N 54°23' E 004°53'137 8.3
2017-Jun-15 05:08N 52°19' E 003°15'2 8.9
2017-Jun-15 04:54N 52°18' E 003°17'4 9.1
2017-Jun-15 04:30N 52°15' E 003°22'5 9.3
2017-Jun-15 04:00N 52°12' E 003°27'4 8.9
2017-Jun-15 03:30N 52°09' E 003°32'4 8.8
2017-Jun-15 03:00N 52°06' E 003°38'5 9.1
2017-Jun-15 02:30N 52°05' E 003°45'5 9.4
2017-Jun-15 02:00N 52°03' E 003°52'4 8.8
2017-Jun-15 01:31N 52°01' E 003°58'713.1
2017-Jun-15 01:00N 51°58' E 004°08'2 3.8
2017-Jun-15 00:29N 51°56' E 004°10'0 0.0
2017-Jun-14 23:56N 51°56' E 004°10'0 0.0
2017-Jun-14 23:30N 51°56' E 004°10'0 0.0
2017-Jun-14 22:59N 51°56' E 004°10'0 0.0
2017-Jun-14 22:29N 51°56' E 004°10'0 0.0
2017-Jun-14 21:59N 51°56' E 004°10'0 0.0
2017-Jun-14 21:26N 51°56' E 004°10'0 0.0
2017-Jun-14 20:50N 51°56' E 004°10'0 0.0
2017-Jun-14 20:30N 51°56' E 004°10'0 0.0
2017-Jun-14 19:53N 51°56' E 004°10'0 0.0
2017-Jun-14 19:24N 51°56' E 004°10'0 0.0
2017-Jun-14 18:51N 51°56' E 004°10'0 0.0
2017-Jun-14 18:29N 51°56' E 004°10'0 0.0
2017-Jun-14 17:53N 51°56' E 004°10'0 0.0
2017-Jun-14 17:29N 51°56' E 004°10'0 0.0
2017-Jun-14 16:59N 51°56' E 004°10'0 0.0
2017-Jun-14 16:27N 51°56' E 004°10'0 0.0
2017-Jun-14 15:59N 51°56' E 004°10'0 0.0
2017-Jun-14 15:26N 51°56' E 004°10'0 0.0
2017-Jun-14 14:59N 51°56' E 004°10'0 0.0
2017-Jun-14 13:56N 51°56' E 004°10'0 0.0
2017-Jun-14 13:29N 51°56' E 004°10'0 0.0
2017-Jun-14 13:00N 51°56' E 004°10'0 0.0
2017-Jun-14 12:29N 51°56' E 004°10'0 0.0
2017-Jun-14 11:59N 51°56' E 004°10'0 0.0
2017-Jun-14 11:29N 51°56' E 004°10'0 0.0
2017-Jun-14 10:56N 51°56' E 004°10'0 0.0
2017-Jun-14 10:29N 51°56' E 004°10'0 0.0
2017-Jun-14 09:53N 51°56' E 004°10'0 0.0
2017-Jun-14 09:09N 51°56' E 004°10'0 0.0
2017-Jun-14 08:57N 51°56' E 004°10'0 0.0
2017-Jun-14 08:24N 51°56' E 004°10'0 0.0
2017-Jun-14 07:48N 51°56' E 004°10'0 0.0
2017-Jun-14 07:30N 51°56' E 004°10'0 0.0
2017-Jun-14 07:00N 51°56' E 004°10'0 0.0
2017-Jun-14 06:24N 51°56' E 004°10'0 0.0
2017-Jun-14 06:00N 51°56' E 004°10'0 0.0
2017-Jun-14 05:30N 51°56' E 004°10'0 0.0
2017-Jun-14 04:57N 51°56' E 004°10'0 0.0
2017-Jun-14 04:30N 51°56' E 004°10'0 0.0
2017-Jun-14 03:51N 51°56' E 004°10'0 0.0
2017-Jun-14 03:30N 51°56' E 004°10'0 0.0
2017-Jun-14 02:57N 51°56' E 004°10'0 0.0
2017-Jun-14 02:27N 51°56' E 004°10'0 0.0
2017-Jun-14 02:00N 51°56' E 004°10'0 0.0
2017-Jun-14 01:27N 51°56' E 004°10'0 0.0
2017-Jun-14 00:57N 51°56' E 004°10'0 0.0
2017-Jun-14 00:30N 51°56' E 004°10'0 0.0
2017-Jun-14 00:00N 51°56' E 004°10'0 0.0
2017-Jun-13 23:30N 51°56' E 004°10'0 0.0
2017-Jun-13 22:51N 51°56' E 004°10'0 0.0
2017-Jun-13 22:21N 51°56' E 004°10'0 0.0
2017-Jun-13 21:57N 51°56' E 004°10'0 0.3
2017-Jun-13 21:31N 51°57' E 004°10'1 1.9
2017-Jun-13 21:01N 51°57' E 004°09'3 6.9
2017-Jun-13 20:31N 51°59' E 004°04'510.8
2017-Jun-13 20:01N 52°01' E 003°56'5 9.9
2017-Jun-13 19:30N 52°00' E 003°47'510.1
2017-Jun-13 19:00N 52°02' E 003°40'611.9
2017-Jun-13 18:30N 52°06' E 003°33'612.1
2017-Jun-13 18:00N 52°09' E 003°24'612.2
2017-Jun-13 17:30N 52°13' E 003°16'611.4
2017-Jun-13 16:59N 52°17' E 003°09'511.1
2017-Jun-13 16:30N 52°22' E 003°09'611.3
2017-Jun-13 15:59N 52°28' E 003°10'511.4
2017-Jun-13 15:31N 52°34' E 003°09'  

Dump ship's entire track history